Time;durP1;ratioP1;P1;durP2;ratioP2;P2;SDS_P1;SDS_P2;PMS_P1;PMS_P2;Temp;Humidity;BMP_temperature;BMP_pressure;BME280_temperature;BME280_humidity;BME280_pressure;Samples;Min_cycle;Max_cycle;Signal;HPM_P1;HPM_P2
2020/12/10 00:01:07;;;;;;;;;;;;;;;;;;6065407;23;1443;-77
2020/12/10 00:03:33;;;;;;;;;;;;;;;;;;6063986;23;1074;-78
2020/12/10 00:05:59;;;;;;;;;;;;;;;;;;6066334;23;1127;-78
2020/12/10 00:08:26;;;;;;;;;;;;;;;;;;6066351;23;1023;-79
2020/12/10 00:10:53;;;;;;;;;;;;;;;;;;6065078;23;1375;-78
2020/12/10 00:13:19;;;;;;;;;;;;;;;;;;6065687;23;1020;-78
2020/12/10 00:15:45;;;;;;;;;;;;;;;;;;6064142;23;1923;-78
2020/12/10 00:18:11;;;;;;;;;;;;;;;;;;6065831;23;1057;-78
2020/12/10 00:20:37;;;;;;;;;;;;;;;;;;6064436;23;1314;-79
2020/12/10 00:23:03;;;;;;;;;;;;;;;;;;6064850;23;1142;-78
2020/12/10 00:25:30;;;;;;;;;;;;;;;;;;6063924;23;1185;-77
2020/12/10 00:27:56;;;;;;;;;;;;;;;;;;6065784;23;1061;-78
2020/12/10 00:30:22;;;;;;;;;;;;;;;;;;6064144;23;1067;-78
2020/12/10 00:32:49;;;;;;;;;;;;;;;;;;6039639;23;1240;-78
2020/12/10 00:35:15;;;;;;;;;;;;;;;;;;6065196;23;1897;-79
2020/12/10 00:37:41;;;;;;;;;;;;;;;;;;6066068;23;1067;-79
2020/12/10 00:40:08;;;;;;;;;;;;;;;;;;6064238;23;1131;-78
2020/12/10 00:42:35;;;;;;;;;;;;;;;;;;6064138;23;1027;-78
2020/12/10 00:45:02;;;;;;;;;;;;;;;;;;6065204;23;1135;-79
2020/12/10 00:47:28;;;;;;;;;;;;;;;;;;6064840;23;1096;-79
2020/12/10 00:49:54;;;;;;;;;;;;;;;;;;6065213;23;1138;-78
2020/12/10 00:52:23;;;;;;;;;;;;;;;;;;6064860;23;1213;-79
2020/12/10 00:54:49;;;;;;;;;;;;;;;;;;6064027;23;1897;-77
2020/12/10 00:57:15;;;;;;;;;;;;;;;;;;6065444;23;1127;-79
2020/12/10 00:59:42;;;;;;;;;;;;;;;;;;6041098;23;1019;-77
2020/12/10 01:02:08;;;;;;;;;;;;;;;;;;6064206;23;1028;-78
2020/12/10 01:04:34;;;;;;;;;;;;;;;;;;6040539;23;1088;-79
2020/12/10 01:07:01;;;;;;;;;;;;;;;;;;6063590;23;1163;-79
2020/12/10 01:09:27;;;;;;;;;;;;;;;;;;6064505;23;1318;-77
2020/12/10 01:11:53;;;;;;;;;;;;;;;;;;6065719;23;1128;-79
2020/12/10 01:14:19;;;;;;;;;;;;;;;;;;6064547;23;1893;-78
2020/12/10 01:16:47;;;;;;;;;;;;;;;;;;6039481;23;1228;-78
2020/12/10 01:19:13;;;;;;;;;;;;;;;;;;6065281;23;1035;-79
2020/12/10 01:21:40;;;;;;;;;;;;;;;;;;6054881;23;1498;-77
2020/12/10 01:24:06;;;;;;;;;;;;;;;;;;6093590;23;1033;-80
2020/12/10 01:26:33;;;;;;;;;;;;;;;;;;6093797;23;1019;-78
2020/12/10 01:28:59;;;;;;;;;;;;;;;;;;6094297;23;1079;-77
2020/12/10 01:31:25;;;;;;;;;;;;;;;;;;6092620;23;1096;-78
2020/12/10 01:33:52;;;;;;;;;;;;;;;;;;6093189;23;1084;-78
2020/12/10 01:36:19;;;;;;;;;;;;;;;;;;6093737;23;1947;-78
2020/12/10 01:38:45;;;;;;;;;;;;;;;;;;6094463;23;1107;-79
2020/12/10 01:41:11;;;;;;;;;;;;;;;;;;6094459;23;991;-79
2020/12/10 01:43:38;;;;;;;;;;;;;;;;;;6092884;23;1087;-79
2020/12/10 01:46:05;;;;;;;;;;;;;;;;;;6065440;23;1459;-78
2020/12/10 01:48:32;;;;;;;;;;;;;;;;;;6090612;23;1058;-78
2020/12/10 01:50:59;;;;;;;;;;;;;;;;;;6094386;23;1011;-78
2020/12/10 01:53:25;;;;;;;;;;;;;;;;;;6093523;23;1034;-78
2020/12/10 01:55:51;;;;;;;;;;;;;;;;;;6082410;23;1878;-79
2020/12/10 01:58:17;;;;;;;;;;;;;;;;;;6093754;23;1472;-79
2020/12/10 02:00:44;;;;;;;;;;;;;;;;;;6093485;23;1065;-79
2020/12/10 02:03:10;;;;;;;;;;;;;;;;;;6068672;23;1320;-79
2020/12/10 02:05:41;;;;;;;;;;;;;;;;;;6068793;23;1091;-78
2020/12/10 02:08:08;;;;;;;;;;;;;;;;;;6093094;23;1134;-79
2020/12/10 02:10:34;;;;;;;;;;;;;;;;;;6096045;23;1135;-77
2020/12/10 02:13:00;;;;;;;;;;;;;;;;;;6094095;23;1075;-79
2020/12/10 02:15:26;;;;;;;;;;;;;;;;;;6095772;23;1901;-78
2020/12/10 02:17:54;;;;;;;;;;;;;;;;;;6095961;23;1043;-77
2020/12/10 02:20:20;;;;;;;;;;;;;;;;;;6095464;23;1057;-78
2020/12/10 02:22:51;;;;;;;;;;;;;;;;;;6066204;23;1162;-78
2020/12/10 02:25:17;;;;;;;;;;;;;;;;;;6041195;23;1328;-78
2020/12/10 02:27:44;;;;;;;;;;;;;;;;;;6040833;23;1467;-78
2020/12/10 02:30:10;;;;;;;;;;;;;;;;;;6064851;23;1108;-78
2020/12/10 02:32:36;;;;;;;;;;;;;;;;;;6065063;23;1119;-78
2020/12/10 02:35:02;;;;;;;;;;;;;;;;;;6064972;23;1937;-78
2020/12/10 02:37:28;;;;;;;;;;;;;;;;;;6066676;23;1144;-78
2020/12/10 02:39:55;;;;;;;;;;;;;;;;;;6066748;23;1154;-78
2020/12/10 02:42:22;;;;;;;;;;;;;;;;;;6064302;23;1041;-80
2020/12/10 02:44:48;;;;;;;;;;;;;;;;;;6035127;23;1229;-78
2020/12/10 02:47:15;;;;;;;;;;;;;;;;;;6065985;23;1242;-78
2020/12/10 02:49:41;;;;;;;;;;;;;;;;;;6066442;23;1011;-78
2020/12/10 02:52:07;;;;;;;;;;;;;;;;;;6066651;23;1024;-78
2020/12/10 02:54:33;;;;;;;;;;;;;;;;;;6063580;23;1889;-78
2020/12/10 02:57:01;;;;;;;;;;;;;;;;;;6066556;23;1042;-78
2020/12/10 02:59:27;;;;;;;;;;;;;;;;;;6067166;23;1011;-78
2020/12/10 03:01:53;;;;;;;;;;;;;;;;;;6065978;23;1414;-78
2020/12/10 03:04:19;;;;;;;;;;;;;;;;;;6064802;23;1136;-77
2020/12/10 03:06:45;;;;;;;;;;;;;;;;;;6067472;23;1047;-77
2020/12/10 03:09:12;;;;;;;;;;;;;;;;;;6067469;23;969;-78
2020/12/10 03:11:38;;;;;;;;;;;;;;;;;;6041364;23;1228;-79
2020/12/10 03:14:04;;;;;;;;;;;;;;;;;;6064490;23;1580;-78
2020/12/10 03:16:30;;;;;;;;;;;;;;;;;;6066620;23;1970;-78
2020/12/10 03:18:58;;;;;;;;;;;;;;;;;;6066025;23;1012;-78
2020/12/10 03:21:24;;;;;;;;;;;;;;;;;;6066421;23;1076;-78
2020/12/10 03:23:50;;;;;;;;;;;;;;;;;;6066306;23;1096;-78
2020/12/10 03:26:16;;;;;;;;;;;;;;;;;;6064605;23;1128;-78
2020/12/10 03:28:43;;;;;;;;;;;;;;;;;;6066371;23;980;-78
2020/12/10 03:31:10;;;;;;;;;;;;;;;;;;6065753;23;1091;-78
2020/12/10 03:33:36;;;;;;;;;;;;;;;;;;6065635;23;1088;-78
2020/12/10 03:36:02;;;;;;;;;;;;;;;;;;6065871;23;1905;-77
2020/12/10 03:38:28;;;;;;;;;;;;;;;;;;6041093;23;1368;-77
2020/12/10 03:40:55;;;;;;;;;;;;;;;;;;6065673;23;821;-78
2020/12/10 03:43:21;;;;;;;;;;;;;;;;;;6066851;23;1016;-78
2020/12/10 03:45:47;;;;;;;;;;;;;;;;;;6065738;23;1009;-78
2020/12/10 03:48:14;;;;;;;;;;;;;;;;;;6066504;23;1088;-78
2020/12/10 03:50:40;;;;;;;;;;;;;;;;;;6065840;23;1551;-79
2020/12/10 03:53:09;;;;;;;;;;;;;;;;;;6065932;23;1450;-78
2020/12/10 03:55:36;;;;;;;;;;;;;;;;;;6063482;23;1923;-78
2020/12/10 03:58:02;;;;;;;;;;;;;;;;;;6065547;23;1000;-78
2020/12/10 04:00:28;;;;;;;;;;;;;;;;;;6039839;23;1096;-78
2020/12/10 04:02:55;;;;;;;;;;;;;;;;;;6066257;23;1035;-78
2020/12/10 04:05:22;;;;;;;;;;;;;;;;;;6064786;23;1170;-78
2020/12/10 04:07:48;;;;;;;;;;;;;;;;;;6065960;23;1090;-77
2020/12/10 04:10:15;;;;;;;;;;;;;;;;;;6064709;23;1100;-79
2020/12/10 04:12:41;;;;;;;;;;;;;;;;;;6065293;23;1093;-78
2020/12/10 04:15:06;;;;;;;;;;;;;;;;;;6066587;23;1870;-78
2020/12/10 04:17:33;;;;;;;;;;;;;;;;;;6065522;23;1106;-77
2020/12/10 04:19:59;;;;;;;;;;;;;;;;;;6066378;23;1059;-78
2020/12/10 04:22:26;;;;;;;;;;;;;;;;;;6065689;23;1119;-79
2020/12/10 04:24:52;;;;;;;;;;;;;;;;;;6063956;23;1079;-78
2020/12/10 04:27:18;;;;;;;;;;;;;;;;;;6065212;23;1165;-79
2020/12/10 04:29:45;;;;;;;;;;;;;;;;;;6064737;23;1100;-78
2020/12/10 04:32:11;;;;;;;;;;;;;;;;;;6065149;23;1128;-78
2020/12/10 04:34:37;;;;;;;;;;;;;;;;;;6065702;23;1897;-80
2020/12/10 04:37:03;;;;;;;;;;;;;;;;;;6065965;23;944;-77
2020/12/10 04:39:30;;;;;;;;;;;;;;;;;;6064389;23;1420;-78
2020/12/10 04:41:56;;;;;;;;;;;;;;;;;;6067614;23;1440;-78
2020/12/10 04:44:23;;;;;;;;;;;;;;;;;;6067875;23;1075;-77
2020/12/10 04:46:51;;;;;;;;;;;;;;;;;;6067818;23;1080;-78
2020/12/10 04:49:17;;;;;;;;;;;;;;;;;;6067759;23;1033;-78
2020/12/10 04:51:43;;;;;;;;;;;;;;;;;;6067587;23;1084;-77
2020/12/10 04:54:10;;;;;;;;;;;;;;;;;;6067362;23;1083;-78
2020/12/10 04:56:37;;;;;;;;;;;;;;;;;;6068063;23;1892;-78
2020/12/10 04:59:05;;;;;;;;;;;;;;;;;;6067917;23;1065;-78
2020/12/10 05:01:32;;;;;;;;;;;;;;;;;;6067776;23;1129;-78
2020/12/10 05:03:58;;;;;;;;;;;;;;;;;;6067427;23;1135;-78
2020/12/10 05:06:25;;;;;;;;;;;;;;;;;;6067359;23;1123;-78
2020/12/10 05:08:51;;;;;;;;;;;;;;;;;;6067738;23;1150;-78
2020/12/10 05:11:32;;;;;;;;;;;;;;;;;;6068142;23;1016;-78
2020/12/10 05:13:59;;;;;;;;;;;;;;;;;;6066688;23;1454;-77
2020/12/10 05:16:26;;;;;;;;;;;;;;;;;;6067603;23;1939;-79
2020/12/10 05:18:51;;;;;;;;;;;;;;;;;;6067349;23;1253;-78
2020/12/10 05:21:17;;;;;;;;;;;;;;;;;;6066949;23;1384;-80
2020/12/10 05:23:43;;;;;;;;;;;;;;;;;;6067853;23;1496;-78
2020/12/10 05:26:10;;;;;;;;;;;;;;;;;;6067051;23;1039;-78
2020/12/10 05:28:40;;;;;;;;;;;;;;;;;;6066543;23;1261;-78
2020/12/10 05:31:11;;;;;;;;;;;;;;;;;;6067714;23;1070;-78
2020/12/10 05:33:37;;;;;;;;;;;;;;;;;;6067222;23;1104;-78
2020/12/10 05:36:09;;;;;;;;;;;;;;;;;;6067758;23;1932;-80
2020/12/10 05:38:51;;;;;;;;;;;;;;;;;;6067215;23;1041;-79
2020/12/10 05:41:18;;;;;;;;;;;;;;;;;;6067836;23;998;-79
2020/12/10 05:43:44;;;;;;;;;;;;;;;;;;6043543;23;1339;-78
2020/12/10 05:46:15;;;;;;;;;;;;;;;;;;6069079;23;1136;-78
2020/12/10 05:48:44;;;;;;;;;;;;;;;;;;6068547;23;1103;-78
2020/12/10 05:51:14;;;;;;;;;;;;;;;;;;6069891;23;1127;-79
2020/12/10 05:53:41;;;;;;;;;;;;;;;;;;6019765;23;1432;-78
2020/12/10 05:56:09;;;;;;;;;;;;;;;;;;6069475;23;1940;-77
2020/12/10 05:58:46;;;;;;;;;;;;;;;;;;6068960;23;1130;-79
2020/12/10 06:01:17;;;;;;;;;;;;;;;;;;6068492;23;1525;-78
2020/12/10 06:03:47;;;;;;;;;;;;;;;;;;6069290;23;1020;-78
2020/12/10 06:06:14;;;;;;;;;;;;;;;;;;6044096;23;1253;-78
2020/12/10 06:08:40;;;;;;;;;;;;;;;;;;6060075;23;1039;-78
2020/12/10 06:11:07;;;;;;;;;;;;;;;;;;6065501;23;1063;-78
2020/12/10 06:13:42;;;;;;;;;;;;;;;;;;6065797;23;1216;-79
2020/12/10 06:16:18;;;;;;;;;;;;;;;;;;6065416;23;1934;-79
2020/12/10 06:19:05;;;;;;;;;;;;;;;;;;6061636;23;1147;-78
2020/12/10 06:21:36;;;;;;;;;;;;;;;;;;6066329;23;1357;-79
2020/12/10 06:24:17;;;;;;;;;;;;;;;;;;6060875;23;1391;-79
2020/12/10 06:26:43;;;;;;;;;;;;;;;;;;6065583;23;1177;-78
2020/12/10 06:29:17;;;;;;;;;;;;;;;;;;6066491;23;1004;-78
2020/12/10 06:31:59;;;;;;;;;;;;;;;;;;6066049;23;1127;-79
2020/12/10 06:34:32;;;;;;;;;;;;;;;;;;6068266;23;1028;-77
2020/12/10 06:37:12;;;;;;;;;;;;;;;;;;6067286;23;1957;-78
2020/12/10 06:39:38;;;;;;;;;;;;;;;;;;6068044;23;1091;-79
2020/12/10 06:44:49;;;;;;;;;;;;;;;;;;6068383;23;1660;-78
2020/12/10 06:47:17;;;;;;;;;;;;;;;;;;6068748;23;1076;-78
2020/12/10 06:49:43;;;;;;;;;;;;;;;;;;6068735;23;1032;-78
2020/12/10 06:52:17;;;;;;;;;;;;;;;;;;6068772;23;1035;-78
2020/12/10 06:55:02;;;;;;;;;;;;;;;;;;6067689;23;1028;-79
2020/12/10 06:57:48;;;;;;;;;;;;;;;;;;6067763;23;1383;-78
2020/12/10 07:00:29;;;;;;;;;;;;;;;;;;6068715;23;1139;-78
2020/12/10 07:03:08;;;;;;;;;;;;;;;;;;6067921;23;1404;-79
2020/12/10 07:08:18;;;;;;;;;;;;;;;;;;6067309;23;1564;-79
2020/12/10 07:13:30;;;;;;;;;;;;;;;;;;6067166;23;1563;-78
2020/12/10 07:15:56;;;;;;;;;;;;;;;;;;6042730;23;1953;-79
2020/12/10 07:18:23;;;;;;;;;;;;;;;;;;6068494;23;1095;-80
2020/12/10 07:20:49;;;;;;;;;;;;;;;;;;6069167;23;1242;-78
2020/12/10 07:25:55;;;;;;;;;;;;;;;;;;6066333;23;1466;-79
2020/12/10 07:28:22;;;;;;;;;;;;;;;;;;6068258;23;1063;-78
2020/12/10 07:30:49;;;;;;;;;;;;;;;;;;6068687;23;1059;-79
2020/12/10 07:33:21;;;;;;;;;;;;;;;;;;6043265;23;1654;-78
2020/12/10 07:35:49;;;;;;;;;;;;;;;;;;6068458;23;1928;-79
2020/12/10 07:38:16;;;;;;;;;;;;;;;;;;6068313;23;1011;-78
2020/12/10 07:40:42;;;;;;;;;;;;;;;;;;6069175;23;1066;-78
2020/12/10 07:43:10;;;;;;;;;;;;;;;;;;6068805;23;1079;-78
2020/12/10 07:45:37;;;;;;;;;;;;;;;;;;6068669;23;1248;-78
2020/12/10 07:48:04;;;;;;;;;;;;;;;;;;6068433;23;1398;-77
2020/12/10 07:50:35;;;;;;;;;;;;;;;;;;6068899;23;1131;-79
2020/12/10 07:53:09;;;;;;;;;;;;;;;;;;6069239;23;1012;-79
2020/12/10 07:55:36;;;;;;;;;;;;;;;;;;6069027;23;1889;-78
2020/12/10 07:58:07;;;;;;;;;;;;;;;;;;6067983;23;1047;-78
2020/12/10 08:03:21;;;;;;;;;;;;;;;;;;6067782;23;1414;-79
2020/12/10 08:05:59;;;;;;;;;;;;;;;;;;6068864;23;1080;-77
2020/12/10 08:08:37;;;;;;;;;;;;;;;;;;6068821;23;1116;-78
2020/12/10 08:11:10;;;;;;;;;;;;;;;;;;6068404;23;1108;-78
2020/12/10 08:13:36;;;;;;;;;;;;;;;;;;6069170;23;1103;-78
2020/12/10 08:21:30;;;;;;;;;;;;;;;;;;6067683;23;1505;-78
2020/12/10 08:23:57;;;;;;;;;;;;;;;;;;6069720;23;1104;-79
2020/12/10 08:29:04;;;;;;;;;;;;;;;;;;6069460;23;1438;-79
2020/12/10 08:34:18;;;;;;;;;;;;;;;;;;6068016;23;1584;-79
2020/12/10 08:36:45;;;;;;;;;;;;;;;;;;6068460;23;1897;-79
2020/12/10 08:41:53;;;;;;;;;;;;;;;;;;6067683;23;1406;-79
2020/12/10 08:44:22;;;;;;;;;;;;;;;;;;6068993;23;1275;-80
2020/12/10 08:46:59;;;;;;;;;;;;;;;;;;6068898;23;1059;-79
2020/12/10 08:49:25;;;;;;;;;;;;;;;;;;6068363;23;1512;-81
2020/12/10 08:51:51;;;;;;;;;;;;;;;;;;6068656;23;1099;-79
2020/12/10 08:54:18;;;;;;;;;;;;;;;;;;6062680;23;1079;-79
2020/12/10 08:56:46;;;;;;;;;;;;;;;;;;6063102;23;1960;-80
2020/12/10 08:59:12;;;;;;;;;;;;;;;;;;6065498;23;1046;-79
2020/12/10 09:01:50;;;;;;;;;;;;;;;;;;6066996;23;1142;-80
2020/12/10 09:04:16;;;;;;;;;;;;;;;;;;6068173;23;1463;-80
2020/12/10 09:06:44;;;;;;;;;;;;;;;;;;6068979;23;1078;-80
2020/12/10 09:09:13;;;;;;;;;;;;;;;;;;6070223;23;1538;-80
2020/12/10 09:11:45;;;;;;;;;;;;;;;;;;6071456;23;1094;-81
2020/12/10 09:14:11;;;;;;;;;;;;;;;;;;6071421;23;1477;-80
2020/12/10 09:16:38;;;;;;;;;;;;;;;;;;6080253;23;10314;-81
2020/12/10 09:19:04;;;;;;;;;;;;;;;;;;6101892;23;1608;-79
2020/12/10 09:21:35;;;;;;;;;;;;;;;;;;6104805;23;1593;-80
2020/12/10 09:24:02;;;;;;;;;;;;;;;;;;6128044;23;1571;-80
2020/12/10 09:26:28;;;;;;;;;;;;;;;;;;6131199;23;1074;-80
2020/12/10 09:28:55;;;;;;;;;;;;;;;;;;6131286;23;1437;-80
2020/12/10 09:31:21;;;;;;;;;;;;;;;;;;6133987;23;1107;-80
2020/12/10 09:33:49;;;;;;;;;;;;;;;;;;6107987;23;1289;-80
2020/12/10 09:36:16;;;;;;;;;;;;;;;;;;6133518;23;1893;-81
2020/12/10 09:38:42;;;;;;;;;;;;;;;;;;6131715;23;1514;-80
2020/12/10 09:41:10;;;;;;;;;;;;;;;;;;6133058;23;1021;-80
2020/12/10 09:46:17;;;;;;;;;;;;;;;;;;6130646;23;1518;-81
2020/12/10 09:48:43;;;;;;;;;;;;;;;;;;6134060;23;1150;-81
2020/12/10 09:51:11;;;;;;;;;;;;;;;;;;6134549;23;1159;-82
2020/12/10 09:53:40;;;;;;;;;;;;;;;;;;6110202;23;1487;-82
2020/12/10 09:58:50;;;;;;;;;;;;;;;;;;6100319;23;898;-80
2020/12/10 10:01:32;;;;;;;;;;;;;;;;;;6138980;23;1102;-81
2020/12/10 10:04:15;;;;;;;;;;;;;;;;;;6139229;23;1466;-81
2020/12/10 10:06:46;;;;;;;;;;;;;;;;;;6139440;23;1680;-81
2020/12/10 10:15:11;;;;;;;;;;;;;;;;;;6137261;23;1497;-81
2020/12/10 10:17:48;;;;;;;;;;;;;;;;;;6137738;23;1897;-81
2020/12/10 10:20:16;;;;;;;;;;;;;;;;;;6140196;23;1679;-82
2020/12/10 10:22:48;;;;;;;;;;;;;;;;;;6142749;23;1528;-82
2020/12/10 10:25:25;;;;;;;;;;;;;;;;;;6142551;23;1404;-82
2020/12/10 10:27:56;;;;;;;;;;;;;;;;;;6116521;23;1202;-82
2020/12/10 10:30:26;;;;;;;;;;;;;;;;;;6140904;23;1075;-81
2020/12/10 10:32:53;;;;;;;;;;;;;;;;;;6141179;23;1068;-82
2020/12/10 10:35:36;;;;;;;;;;;;;;;;;;6139008;23;1886;-81
2020/12/10 10:40:57;;;;;;;;;;;;;;;;;;6021452;23;1104;-81
2020/12/10 10:49:06;;;;;;;;;;;;;;;;;;6019552;23;987;-81
2020/12/10 10:51:33;;;;;;;;;;;;;;;;;;6019112;23;1076;-81
2020/12/10 10:53:59;;;;;;;;;;;;;;;;;;6017652;23;1148;-80
2020/12/10 10:56:38;;;;;;;;;;;;;;;;;;6016994;23;1897;-82
2020/12/10 11:02:01;;;;;;;;;;;;;;;;;;6016505;23;1370;-81
2020/12/10 11:04:27;;;;;;;;;;;;;;;;;;6014991;23;1394;-80
2020/12/10 11:06:54;;;;;;;;;;;;;;;;;;5993061;23;1108;-82
2020/12/10 11:09:20;;;;;;;;;;;;;;;;;;6016765;23;1411;-81
2020/12/10 11:11:46;;;;;;;;;;;;;;;;;;6012673;23;1647;-80
2020/12/10 11:14:13;;;;;;;;;;;;;;;;;;6014417;23;1601;-81
2020/12/10 11:16:39;;;;;;;;;;;;;;;;;;6015169;23;1893;-80
2020/12/10 11:19:05;;;;;;;;;;;;;;;;;;6119934;23;1073;-80
2020/12/10 11:21:31;;;;;;;;;;;;;;;;;;6130508;23;1372;-81
2020/12/10 11:23:59;;;;;;;;;;;;;;;;;;6130917;23;1452;-80
2020/12/10 11:26:25;;;;;;;;;;;;;;;;;;6129521;23;1882;-80
2020/12/10 11:28:59;;;;;;;;;;;;;;;;;;6127449;23;1139;-80
2020/12/10 11:31:27;;;;;;;;;;;;;;;;;;6126740;23;1540;-79
2020/12/10 11:33:52;;;;;;;;;;;;;;;;;;6125766;23;968;-80
2020/12/10 11:36:19;;;;;;;;;;;;;;;;;;6127651;23;1897;-80
2020/12/10 11:38:45;;;;;;;;;;;;;;;;;;6124591;23;1131;-81
2020/12/10 11:41:12;;;;;;;;;;;;;;;;;;6125620;23;1075;-80
2020/12/10 11:43:38;;;;;;;;;;;;;;;;;;6125704;23;1032;-80
2020/12/10 11:46:04;;;;;;;;;;;;;;;;;;6124731;23;1044;-80
2020/12/10 11:48:31;;;;;;;;;;;;;;;;;;6125678;23;1088;-81
2020/12/10 11:50:59;;;;;;;;;;;;;;;;;;6126785;23;1068;-80
2020/12/10 11:53:32;;;;;;;;;;;;;;;;;;6125441;23;1083;-82
2020/12/10 11:55:58;;;;;;;;;;;;;;;;;;6128577;23;1889;-81
2020/12/10 11:58:40;;;;;;;;;;;;;;;;;;6129357;23;1396;-82
2020/12/10 12:01:07;;;;;;;;;;;;;;;;;;6116858;23;1317;-80
2020/12/10 12:06:21;;;;;;;;;;;;;;;;;;6126868;23;1401;-81
2020/12/10 12:08:52;;;;;;;;;;;;;;;;;;6127657;23;1012;-80
2020/12/10 12:11:23;;;;;;;;;;;;;;;;;;6125992;23;1139;-80
2020/12/10 12:13:49;;;;;;;;;;;;;;;;;;6125857;23;1116;-80
2020/12/10 12:16:16;;;;;;;;;;;;;;;;;;6126384;23;1964;-81
2020/12/10 12:18:42;;;;;;;;;;;;;;;;;;6127945;23;1092;-80
2020/12/10 12:21:08;;;;;;;;;;;;;;;;;;6126543;23;1138;-80
2020/12/10 12:23:34;;;;;;;;;;;;;;;;;;6100407;23;1520;-81
2020/12/10 12:26:01;;;;;;;;;;;;;;;;;;6122883;23;1600;-81
2020/12/10 12:28:27;;;;;;;;;;;;;;;;;;6125670;23;1059;-80
2020/12/10 12:30:54;;;;;;;;;;;;;;;;;;6129468;23;1746;-81
2020/12/10 12:33:21;;;;;;;;;;;;;;;;;;6128371;23;1497;-81
2020/12/10 12:41:15;;;;;;;;;;;;;;;;;;6069507;23;998;-81
2020/12/10 12:44:04;;;;;;;;;;;;;;;;;;6069563;23;1585;-81
2020/12/10 12:46:51;;;;;;;;;;;;;;;;;;6067750;23;1131;-81
2020/12/10 12:49:34;;;;;;;;;;;;;;;;;;6068904;23;1547;-79
2020/12/10 12:52:02;;;;;;;;;;;;;;;;;;6064025;23;1168;-81
2020/12/10 12:54:38;;;;;;;;;;;;;;;;;;6064775;23;1002;-79
2020/12/10 12:57:04;;;;;;;;;;;;;;;;;;6064486;23;1956;-80
2020/12/10 12:59:30;;;;;;;;;;;;;;;;;;6064467;23;1100;-79
2020/12/10 13:01:56;;;;;;;;;;;;;;;;;;6062745;23;1372;-80
2020/12/10 13:04:23;;;;;;;;;;;;;;;;;;6065603;23;1075;-79
2020/12/10 13:12:15;;;;;;;;;;;;;;;;;;6094348;23;1619;-78
2020/12/10 13:14:41;;;;;;;;;;;;;;;;;;6075353;23;1356;-79
2020/12/10 13:17:07;;;;;;;;;;;;;;;;;;6127496;23;1956;-80
2020/12/10 13:19:59;;;;;;;;;;;;;;;;;;6114489;23;1639;-80
2020/12/10 13:22:27;;;;;;;;;;;;;;;;;;6125140;23;1221;-80
2020/12/10 13:25:08;;;;;;;;;;;;;;;;;;6126286;23;1161;-80
2020/12/10 13:27:49;;;;;;;;;;;;;;;;;;6126800;23;1330;-81
2020/12/10 13:30:17;;;;;;;;;;;;;;;;;;6126674;23;1151;-78
2020/12/10 13:32:44;;;;;;;;;;;;;;;;;;6127260;23;1072;-78
2020/12/10 13:35:34;;;;;;;;;;;;;;;;;;6125030;23;1252;-81
2020/12/10 13:38:00;;;;;;;;;;;;;;;;;;6126820;23;1927;-80
2020/12/10 13:40:28;;;;;;;;;;;;;;;;;;6127233;23;1181;-81
2020/12/10 13:45:38;;;;;;;;;;;;;;;;;;6122788;23;1448;-80
2020/12/10 13:51:00;;;;;;;;;;;;;;;;;;6124976;23;1509;-80
2020/12/10 13:53:26;;;;;;;;;;;;;;;;;;6125222;23;1448;-80
2020/12/10 13:58:33;;;;;;;;;;;;;;;;;;6123654;23;1044;-81
2020/12/10 14:01:00;;;;;;;;;;;;;;;;;;6125400;23;1177;-79
2020/12/10 14:03:26;;;;;;;;;;;;;;;;;;6126011;23;1056;-81
2020/12/10 14:05:54;;;;;;;;;;;;;;;;;;6127256;23;1357;-80
2020/12/10 14:08:20;;;;;;;;;;;;;;;;;;6129398;23;1016;-82
2020/12/10 14:13:28;;;;;;;;;;;;;;;;;;6124836;23;1579;-80
2020/12/10 14:15:54;;;;;;;;;;;;;;;;;;6126591;23;1947;-79
2020/12/10 14:18:22;;;;;;;;;;;;;;;;;;6127280;23;1164;-80
2020/12/10 14:20:49;;;;;;;;;;;;;;;;;;6126610;23;1296;-81
2020/12/10 14:23:15;;;;;;;;;;;;;;;;;;6125723;23;1023;-80
2020/12/10 14:25:54;;;;;;;;;;;;;;;;;;6128893;23;1068;-80
2020/12/10 14:28:21;;;;;;;;;;;;;;;;;;6133911;23;1058;-81
2020/12/10 14:30:51;;;;;;;;;;;;;;;;;;6135370;23;1144;-81
2020/12/10 14:33:20;;;;;;;;;;;;;;;;;;6128322;23;1088;-83
2020/12/10 14:35:53;;;;;;;;;;;;;;;;;;6128773;23;1897;-81
2020/12/10 14:38:25;;;;;;;;;;;;;;;;;;6140217;23;1560;-80
2020/12/10 14:40:52;;;;;;;;;;;;;;;;;;6134999;23;1159;-82
2020/12/10 14:43:22;;;;;;;;;;;;;;;;;;6135426;23;1642;-80
2020/12/10 14:45:48;;;;;;;;;;;;;;;;;;6130225;23;1228;-80
2020/12/10 14:48:14;;;;;;;;;;;;;;;;;;6128414;23;1110;-81
2020/12/10 14:50:41;;;;;;;;;;;;;;;;;;6128394;23;1417;-79
2020/12/10 14:55:53;;;;;;;;;;;;;;;;;;6126538;23;1893;-79
2020/12/10 15:01:32;;;;;;;;;;;;;;;;;;6126804;23;1371;-79
